Time;durP1;ratioP1;P1;durP2;ratioP2;P2;SDS_P1;SDS_P2;PMS_P1;PMS_P2;Temp;Humidity;BMP_temperature;BMP_pressure;BME280_temperature;BME280_humidity;BME280_pressure;Samples;Min_cycle;Max_cycle;Signal;HPM_P1;HPM_P2
2023/07/19 00:00:42;;;;;;;0.50;0.50;;;;;;;22.37;52.88;101407.44;5061774;28;20032;-61
2023/07/19 00:03:08;;;;;;;0.88;0.57;;;;;;;22.37;52.92;101402.00;5060736;28;20028;-61
2023/07/19 00:05:33;;;;;;;0.95;0.57;;;;;;;22.37;52.44;101401.13;5062381;28;20039;-61
2023/07/19 00:07:59;;;;;;;0.93;0.60;;;;;;;22.37;52.91;101395.72;5060556;28;20036;-61
2023/07/19 00:10:25;;;;;;;0.75;0.40;;;;;;;22.36;52.92;101396.75;5060667;28;20128;-61
2023/07/19 00:12:50;;;;;;;0.70;0.70;;;;;;;22.37;52.61;101390.28;5061080;28;20475;-61
2023/07/19 00:15:16;;;;;;;0.90;0.63;;;;;;;22.37;53.02;101395.72;5060096;28;20055;-61
2023/07/19 00:17:44;;;;;;;0.50;0.50;;;;;;;22.35;52.56;101386.88;5060170;28;20037;-61
2023/07/19 00:20:10;;;;;;;0.60;0.60;;;;;;;22.36;53.04;101388.59;5061133;28;20044;-61
2023/07/19 00:22:36;;;;;;;1.13;0.65;;;;;;;22.35;52.56;101392.31;5061252;28;20099;-61
2023/07/19 00:25:01;;;;;;;0.88;0.63;;;;;;;22.35;52.81;101390.47;5060915;28;20047;-61
2023/07/19 00:27:27;;;;;;;0.70;0.70;;;;;;;22.36;52.52;101383.19;5061871;28;20064;-61
2023/07/19 00:29:52;;;;;;;1.70;0.70;;;;;;;22.35;52.86;101376.03;5060930;28;20028;-61
2023/07/19 00:32:18;;;;;;;1.13;0.88;;;;;;;22.34;52.81;101379.78;5060303;28;20059;-62
2023/07/19 00:34:43;;;;;;;1.65;0.80;;;;;;;22.34;52.64;101371.63;5057749;28;20032;-61
2023/07/19 00:37:08;;;;;;;1.42;0.85;;;;;;;22.33;52.75;101364.50;5060769;28;20146;-62
2023/07/19 00:39:34;;;;;;;0.60;0.60;;;;;;;22.34;52.29;101368.94;5060258;28;20461;-61
2023/07/19 00:41:59;;;;;;;1.23;0.70;;;;;;;22.33;52.38;101368.09;5060304;28;20032;-61
2023/07/19 00:44:25;;;;;;;0.65;0.50;;;;;;;22.33;52.19;101350.94;5060826;28;20040;-61
2023/07/19 00:46:50;;;;;;;0.60;0.50;;;;;;;22.32;52.60;101357.38;5059740;28;20033;-61
2023/07/19 00:49:16;;;;;;;0.52;0.50;;;;;;;22.32;52.62;101349.25;5055982;28;20509;-62
2023/07/19 00:51:41;;;;;;;1.70;0.73;;;;;;;22.31;52.45;101353.81;5061863;28;20086;-61
2023/07/19 00:54:08;;;;;;;1.38;0.60;;;;;;;22.30;52.54;101352.13;5059890;28;20403;-61
2023/07/19 00:56:33;;;;;;;1.75;0.77;;;;;;;22.30;52.58;101340.44;5060261;28;20498;-61
2023/07/19 00:59:01;;;;;;;0.60;0.60;;;;;;;22.30;52.16;101345.84;5060317;28;20029;-61
2023/07/19 01:01:26;;;;;;;0.88;0.60;;;;;;;22.29;52.29;101344.97;5059151;28;20029;-61
2023/07/19 01:03:52;;;;;;;0.60;0.50;;;;;;;22.30;52.36;101337.72;5059544;28;20375;-62
2023/07/19 01:06:19;;;;;;;0.70;0.60;;;;;;;22.29;52.47;101344.13;5063204;28;20033;-61
2023/07/19 01:08:44;;;;;;;0.70;0.70;;;;;;;22.28;52.23;101350.59;5055105;28;20067;-61
2023/07/19 01:11:10;;;;;;;0.98;0.70;;;;;;;22.29;52.30;101344.97;5055831;28;20021;-61
2023/07/19 01:13:35;;;;;;;2.08;0.70;;;;;;;22.28;51.64;101342.47;5060785;28;20049;-61
2023/07/19 01:16:01;;;;;;;1.08;0.73;;;;;;;22.28;52.31;101335.16;5060580;28;20029;-61
2023/07/19 01:18:26;;;;;;;0.75;0.75;;;;;;;22.28;52.28;101342.47;5059279;28;20410;-62
2023/07/19 01:20:52;;;;;;;1.63;0.63;;;;;;;22.28;52.39;101334.31;5060181;28;20024;-61
2023/07/19 01:23:17;;;;;;;1.27;0.55;;;;;;;22.25;51.90;101322.75;5058918;28;20049;-62
2023/07/19 01:25:42;;;;;;;0.90;0.75;;;;;;;22.25;51.81;101325.47;5062494;28;20107;-62
2023/07/19 01:28:08;;;;;;;0.68;0.68;;;;;;;22.25;52.27;101325.47;5060266;28;20395;-61
2023/07/19 01:30:33;;;;;;;0.80;0.80;;;;;;;22.25;52.25;101328.19;5061852;28;20032;-61
2023/07/19 01:32:59;;;;;;;0.80;0.50;;;;;;;22.25;51.83;101324.63;5059210;28;20071;-61
2023/07/19 01:35:24;;;;;;;0.68;0.63;;;;;;;22.25;51.99;101313.78;5059762;28;20410;-61
2023/07/19 01:37:50;;;;;;;0.70;0.70;;;;;;;22.24;51.84;101310.19;5059964;28;20454;-61
2023/07/19 01:40:16;;;;;;;1.85;0.63;;;;;;;22.23;52.10;101308.47;5058880;28;20029;-61
2023/07/19 01:42:41;;;;;;;0.60;0.60;;;;;;;22.23;52.07;101308.47;5059448;28;20032;-61
2023/07/19 01:45:07;;;;;;;0.90;0.85;;;;;;;22.22;51.70;101317.63;5060254;28;20033;-61
2023/07/19 01:47:33;;;;;;;1.70;0.68;;;;;;;22.23;51.64;101319.31;5061600;28;20028;-61
2023/07/19 01:49:59;;;;;;;0.90;0.70;;;;;;;22.21;51.68;101321.34;5059422;28;20108;-61
2023/07/19 01:52:24;;;;;;;0.85;0.80;;;;;;;22.22;51.93;101322.22;5056248;28;20037;-61
2023/07/19 01:54:50;;;;;;;0.98;0.82;;;;;;;22.21;52.00;101325.94;5059055;28;20432;-61
2023/07/19 01:57:15;;;;;;;1.38;0.60;;;;;;;22.21;52.05;101326.78;5058768;28;20082;-61
2023/07/19 01:59:41;;;;;;;0.77;0.63;;;;;;;22.20;51.72;101318.78;5059191;28;20036;-62
2023/07/19 02:02:06;;;;;;;1.17;0.60;;;;;;;22.20;51.40;101316.94;5059947;28;20055;-61
2023/07/19 02:04:31;;;;;;;0.70;0.60;;;;;;;22.19;51.80;101317.94;5057962;28;20032;-61
2023/07/19 02:06:57;;;;;;;0.90;0.90;;;;;;;22.19;51.54;101315.25;5056001;28;20066;-61
2023/07/19 02:09:23;;;;;;;0.95;0.70;;;;;;;22.19;51.49;101314.41;5059422;28;20110;-62
2023/07/19 02:11:48;;;;;;;1.98;0.63;;;;;;;22.18;51.71;101305.41;5058515;28;20462;-61
2023/07/19 02:14:14;;;;;;;1.30;0.77;;;;;;;22.17;51.47;101309.13;5058916;28;20395;-61
2023/07/19 02:16:39;;;;;;;0.57;0.57;;;;;;;22.17;51.31;101305.56;5060171;28;20049;-61
2023/07/19 02:19:05;;;;;;;1.52;0.70;;;;;;;22.17;51.81;101313.72;5058336;28;20060;-62
2023/07/19 02:21:31;;;;;;;0.93;0.70;;;;;;;22.17;51.69;101306.41;5059117;28;20546;-61
2023/07/19 02:23:57;;;;;;;2.03;0.70;;;;;;;22.17;51.62;101302.88;5059163;28;20043;-61
2023/07/19 02:26:23;;;;;;;1.20;0.80;;;;;;;22.16;51.67;101299.31;5057984;28;20078;-61
2023/07/19 02:28:48;;;;;;;0.73;0.70;;;;;;;22.16;51.27;101291.19;5060116;28;20021;-61
2023/07/19 02:31:14;;;;;;;0.65;0.65;;;;;;;22.16;51.28;101296.59;5043432;28;20237;-61
2023/07/19 02:33:39;;;;;;;1.02;0.70;;;;;;;22.15;51.58;101297.59;5059089;28;20033;-61
2023/07/19 02:36:05;;;;;;;0.63;0.60;;;;;;;22.15;51.23;101303.03;5058942;28;20490;-61
2023/07/19 02:38:30;;;;;;;0.77;0.70;;;;;;;22.15;51.33;101300.31;5058122;28;20025;-61
2023/07/19 02:40:59;;;;;;;2.20;0.63;;;;;;;22.13;51.48;101296.91;5058478;28;20467;-61
2023/07/19 02:43:25;;;;;;;0.75;0.60;;;;;;;22.14;51.17;101303.19;5059502;28;20032;-61
2023/07/19 02:45:54;;;;;;;0.77;0.77;;;;;;;22.13;51.12;101294.19;5061676;28;20099;-62
2023/07/19 02:48:21;;;;;;;0.65;0.60;;;;;;;22.14;51.47;101292.31;5058337;28;20430;-61
2023/07/19 02:50:47;;;;;;;0.80;0.80;;;;;;;22.12;51.48;101303.34;5059040;28;20028;-62
2023/07/19 02:53:13;;;;;;;1.15;0.70;;;;;;;22.13;51.40;101309.63;5059552;28;20048;-61
2023/07/19 02:55:39;;;;;;;0.82;0.60;;;;;;;22.12;50.90;101303.34;5058876;28;20061;-61
2023/07/19 02:58:05;;;;;;;1.10;0.70;;;;;;;22.11;51.22;101301.66;5058906;28;20032;-62
2023/07/19 03:00:30;;;;;;;0.98;0.60;;;;;;;22.12;51.10;101305.19;5058993;28;20485;-61
2023/07/19 03:02:56;;;;;;;1.13;0.80;;;;;;;22.11;50.68;101304.38;5055979;28;20107;-61
2023/07/19 03:05:24;;;;;;;0.80;0.80;;;;;;;22.10;50.52;101302.66;5055041;28;20039;-62
2023/07/19 03:07:50;;;;;;;1.30;0.80;;;;;;;22.11;50.92;101298.94;5058869;28;20040;-62
2023/07/19 03:10:16;;;;;;;1.17;0.80;;;;;;;22.10;50.79;101299.94;5057906;28;20040;-62
2023/07/19 03:12:41;;;;;;;1.00;0.68;;;;;;;22.10;50.52;101301.81;5060240;28;20421;-61
2023/07/19 03:15:07;;;;;;;1.42;0.80;;;;;;;22.11;51.01;101298.09;5058670;28;20029;-61
2023/07/19 03:17:33;;;;;;;0.65;0.60;;;;;;;22.09;50.97;101300.13;5062127;28;20213;-61
2023/07/19 03:19:58;;;;;;;0.90;0.70;;;;;;;22.10;50.77;101304.53;5061279;28;20098;-62
2023/07/19 03:22:23;;;;;;;0.90;0.90;;;;;;;22.09;50.82;101300.97;5062155;28;20125;-61
2023/07/19 03:24:49;;;;;;;1.00;0.77;;;;;;;22.09;51.07;101306.38;5060832;28;20111;-62
2023/07/19 03:27:14;;;;;;;0.77;0.77;;;;;;;22.09;51.07;101317.25;5064073;28;20037;-62
2023/07/19 03:29:39;;;;;;;0.70;0.70;;;;;;;22.09;51.11;101313.69;5062799;28;20426;-62
2023/07/19 03:32:05;;;;;;;0.60;0.60;;;;;;;22.08;50.58;101304.69;5062120;28;20454;-62
2023/07/19 03:34:31;;;;;;;1.23;0.82;;;;;;;22.07;50.45;101313.84;5061029;28;20037;-61
2023/07/19 03:36:56;;;;;;;0.65;0.65;;;;;;;22.07;50.42;101324.69;5061578;28;20108;-61
2023/07/19 03:39:21;;;;;;;0.82;0.70;;;;;;;22.07;50.88;101319.25;5061851;28;20085;-61
2023/07/19 03:41:47;;;;;;;0.90;0.82;;;;;;;22.07;50.83;101319.25;5062254;28;20046;-62
2023/07/19 03:44:12;;;;;;;0.75;0.40;;;;;;;22.06;50.30;101318.38;5044109;28;20386;-61
2023/07/19 03:46:38;;;;;;;0.70;0.70;;;;;;;22.06;50.85;101322.97;5061742;28;20032;-61
2023/07/19 03:49:04;;;;;;;0.73;0.60;;;;;;;22.06;51.06;101322.97;5060854;28;20078;-61
2023/07/19 03:51:29;;;;;;;0.80;0.65;;;;;;;22.06;50.32;101326.53;5061553;28;20039;-61
2023/07/19 03:53:55;;;;;;;0.70;0.70;;;;;;;22.05;50.60;101322.13;5061597;28;20025;-62
2023/07/19 03:56:20;;;;;;;0.80;0.80;;;;;;;22.05;50.76;101314.00;5060581;28;20386;-62
2023/07/19 03:58:48;;;;;;;1.02;0.70;;;;;;;22.05;50.34;101316.72;5058497;28;20487;-62
2023/07/19 04:01:14;;;;;;;3.40;0.70;;;;;;;22.05;50.73;101324.00;5061777;28;20115;-62
2023/07/19 04:03:40;;;;;;;1.08;0.65;;;;;;;22.05;50.31;101318.59;5060566;28;20119;-61
2023/07/19 04:06:06;;;;;;;0.50;0.50;;;;;;;22.04;50.35;101319.56;5060519;28;20068;-61
2023/07/19 04:08:32;;;;;;;1.45;0.75;;;;;;;22.05;50.71;101318.59;5062796;28;20510;-62
2023/07/19 04:10:58;;;;;;;0.55;0.47;;;;;;;22.03;50.36;101315.19;5061703;28;20032;-62
2023/07/19 04:13:23;;;;;;;0.60;0.60;;;;;;;22.03;50.72;101310.59;5060962;28;20409;-62
2023/07/19 04:15:49;;;;;;;2.05;0.90;;;;;;;22.04;50.73;101308.72;5061052;28;20039;-62
2023/07/19 04:18:14;;;;;;;0.90;0.57;;;;;;;22.03;50.34;101313.31;5057882;28;20106;-61
2023/07/19 04:20:39;;;;;;;1.25;0.68;;;;;;;22.02;50.09;101308.03;5060498;28;20098;-62
2023/07/19 04:23:05;;;;;;;1.23;0.73;;;;;;;22.02;50.18;101311.59;5060758;28;20114;-61
2023/07/19 04:25:31;;;;;;;1.45;0.82;;;;;;;22.02;50.23;101321.59;5056437;28;20056;-61
2023/07/19 04:27:56;;;;;;;0.80;0.70;;;;;;;22.01;50.41;101309.06;5060322;28;20047;-61
2023/07/19 04:30:22;;;;;;;1.27;0.98;;;;;;;22.01;50.54;101309.91;5062756;28;20111;-61
2023/07/19 04:32:48;;;;;;;0.70;0.70;;;;;;;22.02;50.13;101316.19;5060782;28;20047;-62
2023/07/19 04:35:14;;;;;;;1.42;0.85;;;;;;;22.01;50.32;101314.50;5060321;28;20031;-62
2023/07/19 04:37:40;;;;;;;0.77;0.77;;;;;;;22.00;49.82;101310.91;5063575;28;20028;-62
2023/07/19 04:40:08;;;;;;;1.40;0.80;;;;;;;21.99;49.79;101314.66;5060766;28;20478;-61
2023/07/19 04:42:33;;;;;;;0.82;0.77;;;;;;;22.00;50.07;101320.91;5044426;28;20041;-61
2023/07/19 04:44:58;;;;;;;0.70;0.70;;;;;;;22.00;50.00;101315.50;5060357;28;20031;-62
2023/07/19 04:47:24;;;;;;;0.70;0.70;;;;;;;21.99;50.13;101317.38;5060567;28;20127;-62
2023/07/19 04:49:49;;;;;;;0.68;0.68;;;;;;;21.99;50.37;101322.78;5059493;28;20036;-62
2023/07/19 04:52:14;;;;;;;0.98;0.80;;;;;;;21.99;50.43;101317.38;5060357;28;20391;-62
2023/07/19 04:54:40;;;;;;;0.80;0.80;;;;;;;21.98;49.95;101321.06;5059398;28;20052;-62
2023/07/19 04:57:06;;;;;;;0.85;0.68;;;;;;;21.98;49.91;101326.50;5039697;28;20041;-62
2023/07/19 04:59:32;;;;;;;0.73;0.73;;;;;;;21.97;49.97;101319.38;5059974;28;20041;-62
2023/07/19 05:01:57;;;;;;;0.60;0.60;;;;;;;21.98;49.83;101331.06;5059034;28;20051;-62
2023/07/19 05:04:23;;;;;;;2.33;0.70;;;;;;;21.98;50.23;101333.78;5057501;28;20120;-62
2023/07/19 05:06:49;;;;;;;1.33;0.70;;;;;;;21.98;49.90;101331.06;5056592;28;20045;-62
2023/07/19 05:09:15;;;;;;;0.70;0.70;;;;;;;21.97;50.28;101332.94;5059463;28;20095;-62
2023/07/19 05:11:41;;;;;;;0.77;0.70;;;;;;;21.97;50.38;101332.94;5058203;28;20033;-62
2023/07/19 05:14:06;;;;;;;1.35;0.90;;;;;;;21.97;50.23;101346.50;5057174;28;20047;-62
2023/07/19 05:16:35;;;;;;;0.73;0.70;;;;;;;21.96;49.96;101327.69;5035368;28;20037;-62
2023/07/19 05:19:00;;;;;;;0.70;0.70;;;;;;;21.96;49.93;101330.38;5058715;28;20048;-62
2023/07/19 05:21:28;;;;;;;1.85;0.70;;;;;;;21.96;50.27;101333.94;5059515;28;20091;-62
2023/07/19 05:23:53;;;;;;;1.48;0.85;;;;;;;21.96;49.63;101338.53;5059878;28;20375;-62
2023/07/19 05:26:19;;;;;;;0.90;0.52;;;;;;;21.96;50.42;101327.69;5061152;28;20025;-62
2023/07/19 05:28:45;;;;;;;0.70;0.70;;;;;;;21.96;49.65;101339.38;5059609;28;20044;-62
2023/07/19 05:31:11;;;;;;;1.27;0.90;;;;;;;21.95;49.80;101329.53;5062762;28;20072;-62
2023/07/19 05:33:37;;;;;;;1.02;0.60;;;;;;;21.95;50.22;101331.38;5060025;28;20577;-62
2023/07/19 05:36:02;;;;;;;1.20;0.93;;;;;;;21.96;49.96;101333.94;5058599;28;20055;-62
2023/07/19 05:38:29;;;;;;;0.70;0.70;;;;;;;21.96;49.67;101333.09;5059343;28;20089;-62
2023/07/19 05:41:04;;;;;;;0.95;0.82;;;;;;;21.96;49.75;101328.53;5054757;28;20039;-62
2023/07/19 05:43:31;;;;;;;1.65;0.60;;;;;;;21.95;50.08;101331.38;5056827;28;20467;-62
2023/07/19 05:46:07;;;;;;;1.15;0.90;;;;;;;21.96;49.93;101322.25;5059169;28;20388;-62
2023/07/19 05:48:33;;;;;;;1.40;0.70;;;;;;;21.95;49.88;101318.69;5059948;28;20029;-62
2023/07/19 05:51:04;;;;;;;0.60;0.60;;;;;;;21.94;50.23;101321.56;5057244;28;20082;-62
2023/07/19 05:53:29;;;;;;;1.15;0.90;;;;;;;21.95;49.81;101321.41;5058066;28;20036;-62
2023/07/19 05:55:56;;;;;;;1.38;0.85;;;;;;;21.95;49.90;101320.53;5059390;28;20037;-62
2023/07/19 05:58:22;;;;;;;0.57;0.57;;;;;;;21.94;50.09;101324.28;5058598;28;20471;-62
2023/07/19 06:00:48;;;;;;;0.80;0.80;;;;;;;21.94;49.66;101327.00;5059777;28;20036;-62
2023/07/19 06:03:16;;;;;;;0.98;0.88;;;;;;;21.93;50.24;101328.81;5059490;28;20471;-62
2023/07/19 06:05:43;;;;;;;1.60;0.80;;;;;;;21.93;50.13;101330.69;5058844;28;20406;-62
2023/07/19 06:08:08;;;;;;;0.80;0.73;;;;;;;21.94;49.82;101324.28;5060994;28;20047;-62
2023/07/19 06:10:33;;;;;;;1.75;1.15;;;;;;;21.94;49.60;101324.28;5059058;28;20033;-62
2023/07/19 06:12:59;;;;;;;0.77;0.60;;;;;;;21.93;49.93;101326.13;5058296;28;20040;-62
2023/07/19 06:15:24;;;;;;;1.65;1.08;;;;;;;21.94;50.07;101324.28;5058619;28;20083;-62
2023/07/19 06:17:50;;;;;;;0.60;0.60;;;;;;;21.93;49.82;101322.56;5059565;28;20033;-62
2023/07/19 06:20:15;;;;;;;0.80;0.77;;;;;;;21.93;50.07;101323.41;5058328;28;20037;-62
2023/07/19 06:22:41;;;;;;;0.95;0.75;;;;;;;21.93;49.99;101325.28;5058693;28;20504;-62
2023/07/19 06:25:06;;;;;;;0.80;0.80;;;;;;;21.94;50.17;101324.28;5058951;28;20028;-62
2023/07/19 06:27:32;;;;;;;0.95;0.80;;;;;;;21.94;49.82;101327.00;5062075;28;20072;-62
2023/07/19 06:29:58;;;;;;;1.10;0.80;;;;;;;21.95;49.72;101317.81;5061177;28;20033;-62
2023/07/19 06:32:24;;;;;;;2.00;0.90;;;;;;;21.93;50.28;101315.28;5052775;28;20119;-63
2023/07/19 06:34:49;;;;;;;0.73;0.73;;;;;;;21.95;50.18;101317.81;5054591;28;20174;-63
2023/07/19 06:37:15;;;;;;;1.63;0.75;;;;;;;21.95;49.65;101317.81;5058676;28;20121;-63
2023/07/19 06:39:40;;;;;;;1.33;0.88;;;;;;;21.94;50.01;101321.56;5058746;28;20041;-63
2023/07/19 06:42:06;;;;;;;1.77;1.00;;;;;;;21.93;49.50;101315.28;5058091;28;20041;-63
2023/07/19 06:44:31;;;;;;;2.08;0.90;;;;;;;21.93;49.55;101320.69;5058516;28;20045;-63
2023/07/19 06:46:59;;;;;;;1.33;0.90;;;;;;;21.93;49.76;101320.69;5059016;28;20036;-64
2023/07/19 06:49:25;;;;;;;1.05;0.90;;;;;;;21.94;49.50;101324.28;5058398;28;20037;-63
2023/07/19 06:51:50;;;;;;;0.82;0.60;;;;;;;21.93;49.66;101323.41;5062841;28;20039;-63
2023/07/19 06:54:15;;;;;;;1.38;0.82;;;;;;;21.94;49.69;101324.28;5062484;28;20043;-63
2023/07/19 06:56:41;;;;;;;2.05;0.80;;;;;;;21.94;50.05;101316.16;5061926;28;20058;-63
2023/07/19 06:59:06;;;;;;;1.67;0.90;;;;;;;21.96;49.62;101327.69;5062490;28;20388;-63
2023/07/19 07:01:32;;;;;;;1.38;0.90;;;;;;;21.95;50.20;101321.41;5062988;28;20110;-63
2023/07/19 07:03:57;;;;;;;1.35;0.88;;;;;;;21.93;49.62;101314.44;5060240;28;20113;-63
2023/07/19 07:06:22;;;;;;;2.55;0.93;;;;;;;21.95;50.11;101321.41;5061137;28;20035;-63
2023/07/19 07:08:48;;;;;;;1.38;0.90;;;;;;;21.96;49.61;101316.84;5063657;28;20064;-63
2023/07/19 07:11:13;;;;;;;1.70;1.13;;;;;;;21.95;49.93;101324.13;5062455;28;20372;-63
2023/07/19 07:13:39;;;;;;;1.23;0.93;;;;;;;21.95;49.63;101325.97;5061550;28;20127;-63
2023/07/19 07:16:04;;;;;;;0.80;0.80;;;;;;;21.95;49.81;101328.69;5061806;28;20036;-63
2023/07/19 07:18:30;;;;;;;1.08;0.80;;;;;;;21.95;50.02;101332.25;5062245;28;20087;-63
2023/07/19 07:20:55;;;;;;;1.17;0.90;;;;;;;21.94;50.44;101329.69;5061317;28;20494;-63
2023/07/19 07:23:21;;;;;;;2.90;1.00;;;;;;;21.95;50.77;101325.97;5062248;28;20394;-63
2023/07/19 07:25:51;;;;;;;1.58;1.08;;;;;;;21.93;51.09;101325.28;5065032;28;20028;-64
2023/07/19 07:28:16;;;;;;;1.58;0.80;;;;;;;21.94;51.07;101318.84;5062449;28;20033;-63
2023/07/19 07:30:42;;;;;;;1.95;1.05;;;;;;;21.94;50.66;101324.28;5064929;28;20069;-65
2023/07/19 07:33:08;;;;;;;1.88;1.10;;;;;;;21.92;51.08;101321.72;5062196;28;20111;-63
2023/07/19 07:35:33;;;;;;;1.27;0.95;;;;;;;21.93;51.09;101319.84;5060873;28;20060;-63
2023/07/19 07:37:58;;;;;;;1.45;0.85;;;;;;;21.93;50.44;101322.56;5061297;28;20064;-63
2023/07/19 07:40:24;;;;;;;1.83;1.33;;;;;;;21.94;50.79;101321.56;5062206;28;20029;-62
2023/07/19 07:42:49;;;;;;;1.15;0.70;;;;;;;21.95;50.39;101323.25;5060751;28;20039;-62
2023/07/19 07:45:15;;;;;;;2.25;0.93;;;;;;;21.94;50.70;101318.84;5061104;28;20060;-62
2023/07/19 07:47:40;;;;;;;1.75;0.95;;;;;;;21.93;50.05;101312.56;5061231;28;20047;-62
2023/07/19 07:50:08;;;;;;;2.40;0.98;;;;;;;21.93;50.50;101315.28;5060904;28;20032;-62
2023/07/19 07:52:34;;;;;;;1.35;1.10;;;;;;;21.94;50.62;101318.84;5061275;28;20039;-63
2023/07/19 07:55:00;;;;;;;1.00;0.90;;;;;;;21.95;50.58;101317.81;5061432;28;20029;-62
2023/07/19 07:57:25;;;;;;;1.45;0.90;;;;;;;21.95;50.38;101317.81;5061292;28;20394;-63
2023/07/19 07:59:51;;;;;;;1.30;1.10;;;;;;;21.95;50.10;101315.13;5061438;28;20037;-63
2023/07/19 08:02:16;;;;;;;1.58;0.80;;;;;;;21.94;50.53;101316.16;5061517;28;20029;-63
2023/07/19 08:04:41;;;;;;;1.58;1.00;;;;;;;21.96;50.22;101311.41;5062183;28;20028;-62
2023/07/19 08:07:07;;;;;;;0.75;0.73;;;;;;;21.96;50.34;101319.53;5061677;28;20152;-63
2023/07/19 08:09:33;;;;;;;1.10;1.00;;;;;;;21.96;50.48;101311.41;5056923;28;20442;-63
2023/07/19 08:11:58;;;;;;;1.20;0.80;;;;;;;21.96;50.08;101314.13;5055661;28;20028;-63
2023/07/19 08:14:24;;;;;;;1.13;0.77;;;;;;;21.96;50.42;101314.13;5062074;28;20051;-63
2023/07/19 08:16:51;;;;;;;1.58;1.00;;;;;;;21.96;50.38;101306.81;5062004;28;20036;-63
2023/07/19 08:19:16;;;;;;;1.48;1.00;;;;;;;21.96;50.27;101300.56;5060819;28;20057;-63
2023/07/19 08:21:42;;;;;;;2.42;1.08;;;;;;;21.96;50.35;101289.72;5061401;28;20036;-63
2023/07/19 08:24:07;;;;;;;1.23;0.98;;;;;;;21.98;50.22;101287.69;5060775;28;20037;-63
2023/07/19 08:26:32;;;;;;;1.15;0.80;;;;;;;21.98;50.26;101295.81;5065138;28;20071;-63
2023/07/19 08:28:58;;;;;;;1.25;0.82;;;;;;;21.98;50.29;101284.97;5062552;28;20417;-62
2023/07/19 08:31:23;;;;;;;1.45;1.05;;;;;;;21.98;50.53;101298.53;5064062;28;20082;-62
2023/07/19 08:33:49;;;;;;;1.13;1.00;;;;;;;21.98;50.56;101293.13;5062481;28;20066;-63
2023/07/19 08:36:14;;;;;;;1.88;0.80;;;;;;;21.98;50.51;101293.97;5061377;28;20043;-62
2023/07/19 08:38:40;;;;;;;1.05;0.90;;;;;;;21.99;50.13;101301.09;5061443;28;20036;-62
2023/07/19 08:41:08;;;;;;;1.20;0.70;;;;;;;21.99;50.18;101294.78;5060690;28;20041;-62
2023/07/19 08:43:37;;;;;;;1.55;0.90;;;;;;;21.99;50.43;101300.22;5063905;28;20035;-63
2023/07/19 08:46:03;;;;;;;1.90;1.08;;;;;;;21.99;50.21;101300.22;5061534;28;20101;-63
2023/07/19 08:48:31;;;;;;;1.00;0.90;;;;;;;21.99;50.64;101297.50;5061860;28;20075;-62
2023/07/19 08:50:59;;;;;;;1.15;0.93;;;;;;;21.97;50.15;101297.69;5061206;28;20048;-63
2023/07/19 08:53:26;;;;;;;1.42;0.90;;;;;;;22.00;50.37;101307.34;5061568;28;20032;-63
2023/07/19 08:55:52;;;;;;;1.48;1.10;;;;;;;21.99;50.16;101300.22;5061518;28;20044;-62
2023/07/19 08:58:18;;;;;;;1.10;1.00;;;;;;;22.00;50.61;101301.94;5060866;28;20553;-62
2023/07/19 09:00:48;;;;;;;1.25;1.10;;;;;;;22.00;50.17;101302.78;5063112;28;20032;-63
2023/07/19 09:03:14;;;;;;;0.73;0.65;;;;;;;22.00;50.55;101301.94;5061554;28;20149;-63
2023/07/19 09:05:40;;;;;;;1.48;1.38;;;;;;;22.01;50.68;101303.66;5060240;28;20036;-63
2023/07/19 09:08:05;;;;;;;1.63;0.82;;;;;;;22.01;50.25;101300.94;5061232;28;20040;-63
2023/07/19 09:10:33;;;;;;;1.38;0.90;;;;;;;22.01;50.51;101290.09;5060682;28;20035;-62
2023/07/19 09:12:58;;;;;;;1.95;0.98;;;;;;;22.01;50.37;101298.22;5060644;28;20119;-62
2023/07/19 09:15:27;;;;;;;1.42;0.90;;;;;;;22.01;50.98;101290.94;5061536;28;20170;-62
2023/07/19 09:17:53;;;;;;;2.38;0.82;;;;;;;22.02;50.72;101292.63;5062511;28;20031;-63
2023/07/19 09:20:19;;;;;;;1.17;0.90;;;;;;;22.02;50.55;101294.47;5060202;28;20494;-63
2023/07/19 09:22:45;;;;;;;1.30;1.08;;;;;;;22.01;50.86;101288.22;5060604;28;20043;-62
2023/07/19 09:25:11;;;;;;;1.15;0.90;;;;;;;22.02;50.47;101303.47;5061578;28;20024;-62
2023/07/19 09:27:40;;;;;;;1.42;0.90;;;;;;;22.03;50.34;101293.50;5063096;28;20028;-62
2023/07/19 09:30:12;;;;;;;1.33;1.02;;;;;;;22.03;50.71;101302.47;5063539;28;20493;-63
2023/07/19 09:32:38;;;;;;;2.40;1.00;;;;;;;22.03;50.84;101296.19;5060912;28;20024;-63
2023/07/19 09:35:05;;;;;;;1.17;0.80;;;;;;;22.04;50.93;101297.88;5059888;28;20068;-63
2023/07/19 09:37:31;;;;;;;1.02;0.90;;;;;;;22.04;50.41;101303.31;5059658;28;20032;-63
2023/07/19 09:39:58;;;;;;;1.40;1.10;;;;;;;22.04;50.75;101297.88;5062543;28;20516;-63
2023/07/19 09:42:25;;;;;;;1.67;0.77;;;;;;;22.05;50.85;101291.47;5061196;28;20036;-63
2023/07/19 09:44:52;;;;;;;1.48;1.10;;;;;;;22.04;50.36;101297.88;5060229;28;20560;-62
2023/07/19 09:47:18;;;;;;;0.77;0.77;;;;;;;22.04;50.43;101292.47;5060624;28;20032;-63
2023/07/19 09:49:44;;;;;;;1.20;0.90;;;;;;;22.04;50.85;101298.72;5061072;28;20040;-63
2023/07/19 09:52:16;;;;;;;0.73;0.70;;;;;;;22.04;50.58;101290.59;5060335;28;20421;-63
2023/07/19 09:54:42;;;;;;;1.95;0.93;;;;;;;22.04;50.73;101282.44;5060401;28;20108;-62
2023/07/19 09:57:07;;;;;;;1.42;0.80;;;;;;;22.04;50.75;101285.16;5059353;28;20081;-63
2023/07/19 09:59:43;;;;;;;1.00;0.90;;;;;;;22.05;50.40;101292.31;5059983;28;20487;-62
2023/07/19 10:02:10;;;;;;;0.93;0.77;;;;;;;22.05;50.37;101294.16;5060597;28;20066;-62
2023/07/19 10:04:38;;;;;;;2.42;0.82;;;;;;;22.05;50.51;101295.00;5060737;28;20031;-62
2023/07/19 10:07:21;;;;;;;0.80;0.80;;;;;;;22.08;50.83;101291.13;5059545;28;20502;-62
2023/07/19 10:09:48;;;;;;;1.67;1.00;;;;;;;22.06;50.79;101288.56;5057331;28;20086;-63
2023/07/19 10:12:16;;;;;;;2.17;1.33;;;;;;;22.07;50.81;101289.44;5060394;28;20041;-63
2023/07/19 10:14:51;;;;;;;2.42;0.90;;;;;;;22.08;50.74;101299.25;5060191;28;20035;-62
2023/07/19 10:17:17;;;;;;;1.02;0.70;;;;;;;22.08;50.56;101293.00;5060627;28;20040;-62
2023/07/19 10:20:13;;;;;;;5.05;1.10;;;;;;;22.10;50.87;101296.38;5060176;28;20049;-62
2023/07/19 10:23:08;;;;;;;1.60;1.00;;;;;;;22.10;50.58;101297.22;5057903;28;20102;-62
2023/07/19 10:25:44;;;;;;;0.80;0.80;;;;;;;22.10;50.82;101290.97;5065673;28;20063;-62
2023/07/19 10:28:12;;;;;;;0.95;0.70;;;;;;;22.10;50.80;101297.22;5063674;28;20037;-62
2023/07/19 10:30:46;;;;;;;0.95;0.82;;;;;;;22.10;51.18;101294.50;5067191;28;20021;-62
2023/07/19 10:33:31;;;;;;;2.25;0.88;;;;;;;22.11;50.98;101284.53;5059691;28;20082;-63
2023/07/19 10:36:10;;;;;;;1.10;1.00;;;;;;;22.11;50.58;101289.97;5063137;28;20111;-63
2023/07/19 10:38:36;;;;;;;2.38;0.90;;;;;;;22.11;51.19;101293.50;5060314;28;20033;-62
2023/07/19 10:41:07;;;;;;;1.58;0.90;;;;;;;22.11;51.18;101289.97;5064744;28;20482;-63
2023/07/19 10:43:35;;;;;;;1.20;0.90;;;;;;;22.11;50.85;101292.69;5063734;28;20413;-62
2023/07/19 10:46:03;;;;;;;1.02;0.80;;;;;;;22.11;51.20;101295.38;5064283;28;20431;-63
2023/07/19 10:48:30;;;;;;;1.35;1.00;;;;;;;22.11;51.20;101295.38;5064563;28;20517;-62
2023/07/19 10:50:59;;;;;;;0.95;0.90;;;;;;;22.11;51.12;101293.50;5061777;28;20111;-63
2023/07/19 10:53:25;;;;;;;1.75;1.20;;;;;;;22.12;51.30;101295.19;5064997;28;20032;-63
2023/07/19 10:55:55;;;;;;;1.73;0.90;;;;;;;22.11;50.83;101285.38;5063719;28;20062;-63
2023/07/19 10:58:29;;;;;;;1.65;0.98;;;;;;;22.12;50.55;101292.47;5063146;28;20043;-63
2023/07/19 11:00:55;;;;;;;1.65;0.93;;;;;;;22.12;51.17;101292.47;5045386;28;20037;-63
2023/07/19 11:03:23;;;;;;;0.80;0.80;;;;;;;22.13;51.23;101296.06;5063778;28;20051;-63
2023/07/19 11:05:51;;;;;;;1.15;0.80;;;;;;;22.13;50.74;101288.78;5063791;28;20418;-63
2023/07/19 11:08:19;;;;;;;1.02;0.90;;;;;;;22.12;51.46;101284.34;5063296;28;20040;-63
2023/07/19 11:10:45;;;;;;;1.27;1.13;;;;;;;22.13;50.86;101291.50;5065092;28;20033;-63
2023/07/19 11:13:10;;;;;;;0.73;0.70;;;;;;;22.13;50.73;101286.06;5062567;28;20052;-63
2023/07/19 11:15:41;;;;;;;0.80;0.80;;;;;;;22.13;51.12;101291.50;5062895;28;20620;-62
2023/07/19 11:18:06;;;;;;;1.37;1.20;;;;;;;22.15;50.86;101300.31;5063281;28;20037;-63
2023/07/19 11:20:32;;;;;;;0.77;0.60;;;;;;;22.14;51.34;101293.19;5064167;28;20044;-62